map of DGW home
DGW - Airport
Location
City:  Douglas, Wyoming, United States
Name:Converse County Airport
ICAO:KDGW
IATA:DGW
FAA LID:DGW

Details
Type:Airport (Airfield)
Use:Public/Civil
Latitude:4247'50"N (42.797194)
Longitude:10523'09"W (-105.385832)
Datum:WGS 1984
Elevation:4932 ft (1503 m)
Variation:8.61E (WMM2015 magnetic declination)
-0.11 annual change
Runways:2
Longest:6534 × 100 ft (1992 × 30.5 m), paved

Time
Time Zone:UTC-7 (DST-6)
Local Time:

Weather
METAR:KDGW 190053Z AUTO 25007KT 10SM CLR 11/00 A3008 RMK AO2 SLP185 T01110000

Related Locations
Nearby:
Farthest:RRG: 10714 mi / 17243 km
Plaine Corail [Sir Gatan Duval Airport (Plaine Corail Airport)], Rodrigues Island, MU

Find:

   beyond  
but within

Other Information
Maps:
NOTAMs:
Links:
Sources:

  
  • flag of United States
  • flag of Wyoming
  

Sectional Chart

Flight Planning
at skyvector.com

Satellite Image

Google Maps Satellite view

 

Copyright © 2004-2018 Karl L. Swartz. All rights reserved.
The Great Circle Mapper name and logo are trademarks of the Great Circle Mapper.
All other trademarks mentioned herein belong to their respective owners.
Please see credits for attibutions and further copyright information.

  Follow gcmap on Facebook Follow gcmap on Twitter Follow gcmap on Google+ GCmap on LinkedIn

hCard Microformat

Geo Microformat